createdAt,value
2019-03-03T00:02:31.273Z,100310.52
2019-03-03T00:05:20.108Z,100315.91
2019-03-03T00:08:08.947Z,100307.31
2019-03-03T00:10:57.817Z,100316.38
2019-03-03T00:13:46.613Z,100313.30
2019-03-03T00:16:35.436Z,100319.27
2019-03-03T00:19:24.314Z,100322.22
2019-03-03T00:22:13.175Z,100330.03
2019-03-03T00:25:02.040Z,100332.92
2019-03-03T00:27:50.938Z,100325.80
2019-03-03T00:30:39.915Z,100321.66
2019-03-03T00:33:28.767Z,100267.48
2019-03-03T00:39:46.021Z,100314.41
2019-03-03T00:45:49.498Z,100311.19
2019-03-03T00:48:50.571Z,100303.50
2019-03-03T00:51:58.448Z,100300.29
2019-03-03T00:58:15.715Z,100296.70
2019-03-03T01:04:32.970Z,100289.12
2019-03-03T01:07:40.799Z,100295.88
2019-03-03T01:10:48.675Z,100297.94
2019-03-03T01:13:56.561Z,100287.27
2019-03-03T01:17:04.406Z,100246.28
2019-03-03T01:20:12.277Z,100284.70
2019-03-03T01:23:03.100Z,100282.86
2019-03-03T01:25:51.435Z,100274.14
2019-03-03T01:28:40.247Z,100275.38
2019-03-03T01:31:21.829Z,100276.66
2019-03-03T01:34:10.651Z,100274.22
2019-03-03T01:36:59.507Z,100275.72
2019-03-03T01:39:48.312Z,100273.85
2019-03-03T01:42:37.231Z,100275.23
2019-03-03T01:45:26.112Z,100260.89
2019-03-03T01:48:14.964Z,100263.98
2019-03-03T01:51:03.791Z,100261.45
2019-03-03T01:53:52.624Z,100257.81
2019-03-03T01:56:34.251Z,100249.55
2019-03-03T01:59:23.065Z,100239.31
2019-03-03T02:02:12.014Z,100255.52
2019-03-03T02:05:00.905Z,100254.37
2019-03-03T02:07:49.800Z,100251.84
2019-03-03T02:10:38.649Z,100246.56
2019-03-03T02:13:27.547Z,100238.53
2019-03-03T02:16:16.453Z,100168.75
2019-03-03T02:19:05.440Z,100229.57
2019-03-03T02:21:54.273Z,100229.34
2019-03-03T02:24:43.175Z,100217.96
2019-03-03T02:27:32.034Z,100215.44
2019-03-03T02:30:41.838Z,100206.84
2019-03-03T02:33:30.649Z,100193.06
2019-03-03T02:36:19.511Z,100174.22
2019-03-03T02:39:27.629Z,100175.60
2019-03-03T02:42:16.568Z,100173.63
2019-03-03T02:45:26.290Z,100173.63
2019-03-03T02:48:15.127Z,100173.08
2019-03-03T02:54:18.496Z,100165.73
2019-03-03T02:57:00.204Z,100144.83
2019-03-03T02:59:49.047Z,100168.48
2019-03-03T03:02:57.014Z,100158.84
2019-03-03T03:05:40.782Z,100153.55
2019-03-03T03:08:48.729Z,100156.31
2019-03-03T03:11:56.764Z,100076.40
2019-03-03T03:15:04.608Z,100141.70
2019-03-03T03:21:08.291Z,100148.73
2019-03-03T03:24:16.154Z,100134.72
2019-03-03T03:30:33.567Z,100129.21
2019-03-03T03:36:50.812Z,100113.69
2019-03-03T03:43:08.060Z,100110.61
2019-03-03T03:49:11.742Z,100098.88
2019-03-03T03:52:19.619Z,100106.00
2019-03-03T03:55:27.776Z,100034.75
2019-03-03T03:58:35.630Z,100099.57
2019-03-03T04:04:14.771Z,100085.78
2019-03-03T04:07:22.760Z,100088.80
2019-03-03T04:10:30.660Z,100086.84
2019-03-03T04:13:38.589Z,100006.61
2019-03-03T04:19:45.698Z,100075.32
2019-03-03T04:22:53.519Z,100085.78
2019-03-03T04:26:01.417Z,100080.53
2019-03-03T04:29:09.248Z,100076.62
2019-03-03T04:32:17.188Z,100077.87
2019-03-03T04:35:01.823Z,100078.32
2019-03-03T04:50:09.847Z,100066.37
2019-03-03T04:53:17.694Z,100060.48
2019-03-03T04:56:25.554Z,100058.41
2019-03-03T04:59:33.423Z,100053.34
2019-03-03T05:02:41.290Z,100048.28
2019-03-03T05:08:44.879Z,100034.25
2019-03-03T05:20:39.657Z,100012.05
2019-03-03T05:23:28.500Z,100006.75
2019-03-03T05:26:17.315Z,100008.95
2019-03-03T05:29:06.146Z,100009.40
2019-03-03T05:31:55.055Z,100013.05
2019-03-03T05:34:43.856Z,100008.77
2019-03-03T05:37:32.723Z,99934.88
2019-03-03T05:40:21.515Z,100013.70
2019-03-03T05:43:10.344Z,100007.25
2019-03-03T05:45:59.279Z,100005.73
2019-03-03T05:48:48.081Z,100010.56
2019-03-03T05:51:29.931Z,99967.69
2019-03-03T05:54:18.745Z,100012.25
2019-03-03T05:57:07.574Z,100013.63
2019-03-03T05:59:56.486Z,100021.20
2019-03-03T06:02:45.343Z,100014.52
2019-03-03T06:05:34.176Z,99935.11
2019-03-03T06:08:23.022Z,100003.59
2019-03-03T06:11:11.828Z,99997.14
2019-03-03T06:14:00.683Z,99999.75
2019-03-03T06:16:49.517Z,100001.36
2019-03-03T06:19:38.355Z,99998.59
2019-03-03T06:22:27.149Z,99993.30
2019-03-03T06:25:16.060Z,99995.94
2019-03-03T06:27:55.798Z,99987.89
2019-03-03T06:30:44.645Z,99988.11
2019-03-03T06:33:33.553Z,99991.88
2019-03-03T06:36:22.422Z,99987.96
2019-03-03T06:39:11.324Z,99993.14
2019-03-03T06:42:00.142Z,99913.97
2019-03-03T06:44:48.960Z,99978.18
2019-03-03T06:47:37.802Z,99978.41
2019-03-03T06:50:26.601Z,99983.58
2019-03-03T06:53:15.527Z,99981.27
2019-03-03T06:55:56.910Z,99983.09
2019-03-03T06:58:39.207Z,99984.70
2019-03-03T07:01:28.033Z,99949.19
2019-03-03T07:04:16.889Z,99986.52
2019-03-03T07:07:05.721Z,99939.08
2019-03-03T07:09:54.548Z,99924.44
2019-03-03T07:12:43.482Z,99984.91
2019-03-03T07:15:32.384Z,99983.76
2019-03-03T07:18:21.195Z,99983.53
2019-03-03T07:21:10.033Z,99987.67
2019-03-03T07:23:58.841Z,99983.31
2019-03-03T07:26:47.777Z,99959.02
2019-03-03T07:29:36.612Z,99986.52
2019-03-03T07:32:25.457Z,99985.14
2019-03-03T07:35:14.315Z,99983.05
2019-03-03T07:38:03.163Z,99977.52
2019-03-03T07:40:51.957Z,99979.34
2019-03-03T07:43:40.809Z,99994.53
2019-03-03T07:46:29.624Z,99994.98
2019-03-03T07:49:18.479Z,99993.22
2019-03-03T07:51:59.734Z,99988.74
2019-03-03T07:54:48.560Z,99979.30
2019-03-03T07:57:37.486Z,99982.50
2019-03-03T08:00:26.466Z,99978.58
2019-03-03T08:03:15.317Z,99983.39
2019-03-03T08:06:04.215Z,99986.81
2019-03-03T08:08:53.080Z,99981.73
2019-03-03T08:11:41.936Z,99977.25
2019-03-03T08:14:30.801Z,99978.03
2019-03-03T08:17:19.662Z,99991.13
2019-03-03T08:20:29.425Z,99986.64
2019-03-03T08:23:18.242Z,99991.08
2019-03-03T08:26:07.229Z,99988.22
2019-03-03T08:28:56.039Z,99981.88
2019-03-03T08:31:44.882Z,99992.80
2019-03-03T08:34:33.702Z,99982.77
2019-03-03T08:37:22.555Z,99984.36
2019-03-03T08:40:12.040Z,99981.26
2019-03-03T08:43:19.889Z,99968.98
2019-03-03T08:55:31.942Z,99985.50
2019-03-03T09:01:49.182Z,99972.79
2019-03-03T09:04:57.139Z,99965.66
2019-03-03T09:10:48.199Z,99954.67
2019-03-03T09:16:51.747Z,99982.72
2019-03-03T09:19:59.627Z,99979.57
2019-03-03T09:22:48.284Z,99990.50
2019-03-03T09:25:56.299Z,99987.95
2019-03-03T09:29:04.154Z,99987.73
2019-03-03T09:38:06.926Z,99941.36
2019-03-03T09:41:14.917Z,99986.64
2019-03-03T09:44:22.917Z,99943.23
2019-03-03T09:50:40.307Z,99978.85
2019-03-03T09:56:44.088Z,99970.91
2019-03-03T09:59:51.968Z,99966.91
2019-03-03T10:02:39.739Z,99963.12
2019-03-03T10:05:47.694Z,99955.77
2019-03-03T10:08:55.535Z,99932.84
2019-03-03T10:15:02.657Z,99934.82
2019-03-03T10:18:10.539Z,99972.28
2019-03-03T10:21:18.425Z,99971.13
2019-03-03T10:24:26.285Z,99969.97
2019-03-03T10:27:34.235Z,99968.20
2019-03-03T10:30:42.205Z,99968.08
2019-03-03T10:33:50.109Z,99962.77
2019-03-03T10:39:53.779Z,99966.48
2019-03-03T10:43:01.653Z,99965.09
2019-03-03T10:46:09.563Z,99895.02
2019-03-03T10:49:17.519Z,99955.27
2019-03-03T10:51:58.640Z,99944.81
2019-03-03T10:58:15.903Z,99945.59
2019-03-03T11:01:01.582Z,99944.44
2019-03-03T11:04:09.605Z,99946.84
2019-03-03T11:07:17.435Z,99940.16
2019-03-03T11:16:18.835Z,99945.52
2019-03-03T11:19:26.813Z,99942.98
2019-03-03T11:22:34.838Z,99945.97
2019-03-03T11:25:42.793Z,99953.53
2019-03-03T11:28:50.664Z,99942.34
2019-03-03T11:31:58.529Z,99940.02
2019-03-03T11:35:06.391Z,99914.25
2019-03-03T11:38:14.275Z,99936.53
2019-03-03T11:41:22.098Z,99933.55
2019-03-03T11:47:25.547Z,99924.53
2019-03-03T11:53:32.789Z,99923.02
2019-03-03T11:56:40.744Z,99923.45
2019-03-03T11:59:48.965Z,99912.02
2019-03-03T12:02:54.029Z,99909.68
2019-03-03T12:05:58.610Z,99911.16
2019-03-03T12:11:46.648Z,99899.41
2019-03-03T12:14:35.305Z,99899.28
2019-03-03T12:20:39.217Z,99891.06
2019-03-03T12:26:46.391Z,99878.33
2019-03-03T12:29:54.404Z,99873.22
2019-03-03T12:33:02.248Z,99876.64
2019-03-03T12:39:09.518Z,99797.88
2019-03-03T12:42:17.417Z,99860.91
2019-03-03T12:48:15.702Z,99852.64
2019-03-03T12:54:33.113Z,99855.31
2019-03-03T12:57:40.971Z,99848.83
2019-03-03T13:00:48.928Z,99846.71
2019-03-03T13:03:49.510Z,99846.92
2019-03-03T13:06:57.461Z,99840.44
2019-03-03T13:10:05.381Z,99840.65
2019-03-03T13:13:13.261Z,99833.16
2019-03-03T13:16:21.145Z,99827.24
2019-03-03T13:22:37.720Z,99819.80
2019-03-03T13:25:45.691Z,99785.27
2019-03-03T13:28:25.246Z,99814.19
2019-03-03T13:34:29.211Z,99773.06
2019-03-03T13:37:37.087Z,99731.55
2019-03-03T13:43:21.470Z,99782.10
2019-03-03T13:46:10.415Z,99793.24
2019-03-03T13:48:59.257Z,99767.38
2019-03-03T13:51:48.102Z,99790.16
2019-03-03T13:54:36.944Z,99784.05
2019-03-03T13:57:26.048Z,99773.96
2019-03-03T14:00:26.935Z,99786.27
2019-03-03T14:03:15.821Z,99778.75
2019-03-03T14:06:04.747Z,99738.97
2019-03-03T14:08:53.711Z,99760.00
2019-03-03T14:11:42.579Z,99764.36
2019-03-03T14:14:31.516Z,99762.98
2019-03-03T14:17:20.310Z,99753.70
2019-03-03T14:20:28.481Z,99746.00
2019-03-03T14:23:17.396Z,99746.78
2019-03-03T14:26:06.220Z,99684.23
2019-03-03T14:28:55.404Z,99740.46
2019-03-03T14:31:45.723Z,99744.02
2019-03-03T14:34:34.561Z,99749.55
2019-03-03T14:37:23.380Z,99744.83
2019-03-03T14:40:33.140Z,99745.61
2019-03-03T14:43:22.044Z,99736.52
2019-03-03T14:46:10.964Z,99738.69
2019-03-03T14:48:59.806Z,99737.52
2019-03-03T14:51:48.655Z,99725.86
2019-03-03T14:54:37.523Z,99714.09
2019-03-03T14:57:19.398Z,99718.13
2019-03-03T15:03:24.278Z,99712.02
2019-03-03T15:06:05.572Z,99705.66
2019-03-03T15:08:54.399Z,99706.83
2019-03-03T15:11:43.319Z,99704.06
2019-03-03T15:14:32.147Z,99698.52
2019-03-03T15:17:20.980Z,99693.38
2019-03-03T15:20:10.004Z,99698.11
2019-03-03T15:22:58.871Z,99695.73
2019-03-03T15:25:47.747Z,99687.42
2019-03-03T15:28:36.736Z,99688.20
2019-03-03T15:31:25.630Z,99651.52
2019-03-03T15:34:14.514Z,99683.84
2019-03-03T15:40:32.224Z,99665.27
2019-03-03T15:43:21.242Z,99660.92
2019-03-03T15:46:10.116Z,99655.98
2019-03-03T15:48:58.948Z,99641.93
2019-03-03T15:51:47.770Z,99608.27
2019-03-03T15:54:36.677Z,99603.36
2019-03-03T15:57:25.505Z,99626.30
2019-03-03T16:00:35.273Z,99623.17
2019-03-03T16:03:17.179Z,99615.85
2019-03-03T16:06:06.001Z,99617.23
2019-03-03T16:08:54.925Z,99610.31
2019-03-03T16:11:43.847Z,99608.36
2019-03-03T16:14:32.750Z,99603.39
2019-03-03T16:17:21.645Z,99595.48
2019-03-03T16:20:31.357Z,99601.59
2019-03-03T16:23:20.283Z,99591.69
2019-03-03T16:26:09.191Z,99578.11
2019-03-03T16:28:58.128Z,99591.27
2019-03-03T16:31:46.948Z,99587.72
2019-03-03T16:34:35.883Z,99579.98
2019-03-03T16:37:24.773Z,99577.42
2019-03-03T16:40:39.651Z,99566.74
2019-03-03T16:43:23.543Z,99559.00
2019-03-03T16:46:12.417Z,99557.20
2019-03-03T16:49:01.267Z,99552.84
2019-03-03T16:51:50.165Z,99547.70
2019-03-03T16:54:39.002Z,99550.83
2019-03-03T16:57:20.312Z,99543.49
2019-03-03T17:00:30.067Z,99539.34
2019-03-03T17:03:18.958Z,99516.44
2019-03-03T17:06:07.821Z,99539.13
2019-03-03T17:08:56.778Z,99471.20
2019-03-03T17:11:45.569Z,99532.97
2019-03-03T17:14:34.642Z,99473.16
2019-03-03T17:17:23.566Z,99532.55
2019-03-03T17:20:12.451Z,99526.59
2019-03-03T17:23:01.455Z,99527.78
2019-03-03T17:25:50.254Z,99517.06
2019-03-03T17:31:46.914Z,99515.69
2019-03-03T17:34:35.831Z,99515.87
2019-03-03T17:37:24.633Z,99508.73
2019-03-03T17:40:34.429Z,99499.60
2019-03-03T17:43:23.351Z,99511.92
2019-03-03T17:46:12.250Z,99498.50
2019-03-03T17:49:01.246Z,99492.96
2019-03-03T17:51:50.279Z,99493.17
2019-03-03T17:54:39.097Z,99489.80
2019-03-03T17:57:21.020Z,99482.87
2019-03-03T18:03:40.143Z,99483.69
2019-03-03T18:06:38.368Z,99484.86
2019-03-03T18:12:29.116Z,99482.67
2019-03-03T18:15:18.299Z,99475.75
2019-03-03T18:18:07.200Z,99471.59
2019-03-03T18:20:49.119Z,99467.44
2019-03-03T18:23:38.042Z,99465.84
2019-03-03T18:26:26.983Z,99464.05
2019-03-03T18:29:15.881Z,99459.69
2019-03-03T18:32:04.829Z,99389.61
2019-03-03T18:34:53.806Z,99456.14
2019-03-03T18:37:42.746Z,99446.45
2019-03-03T18:40:31.676Z,99432.82
2019-03-03T18:43:20.546Z,99441.53
2019-03-03T18:46:09.546Z,99433.02
2019-03-03T18:48:58.346Z,99374.72
2019-03-03T18:51:47.268Z,99423.55
2019-03-03T18:54:36.170Z,99419.59
2019-03-03T18:57:24.989Z,99416.02
2019-03-03T19:00:33.125Z,99411.50
2019-03-03T19:03:15.024Z,99408.13
2019-03-03T19:06:03.888Z,99401.59
2019-03-03T19:08:33.399Z,99387.76
2019-03-03T19:11:22.332Z,99383.81
2019-03-03T19:14:11.212Z,99379.87
2019-03-03T19:17:00.088Z,99375.72
2019-03-03T19:19:49.033Z,99366.23
2019-03-03T19:22:37.986Z,99342.09
2019-03-03T19:25:26.885Z,99328.86
2019-03-03T19:28:15.839Z,99374.33
2019-03-03T19:31:04.860Z,99363.46
2019-03-03T19:34:14.661Z,99360.69
2019-03-03T19:37:03.639Z,99360.90
2019-03-03T19:39:52.462Z,99333.11
2019-03-03T19:42:41.384Z,99350.60
2019-03-03T19:45:51.115Z,99338.75
2019-03-03T19:48:40.118Z,99338.14
2019-03-03T19:51:29.010Z,99343.11
2019-03-03T19:54:17.893Z,99347.84
2019-03-03T19:57:06.821Z,99331.63
2019-03-03T19:59:55.762Z,99328.86
2019-03-03T20:02:35.567Z,99287.14
2019-03-03T20:05:24.552Z,99318.75
2019-03-03T20:08:13.557Z,99323.88
2019-03-03T20:11:02.378Z,99321.11
2019-03-03T20:13:51.247Z,99332.95
2019-03-03T20:16:40.194Z,99328.80
2019-03-03T20:19:29.102Z,99323.06
2019-03-03T20:22:18.013Z,99325.02
2019-03-03T20:28:22.077Z,99292.41
2019-03-03T20:31:10.927Z,99284.10
2019-03-03T20:33:59.820Z,99235.98
2019-03-03T20:36:48.688Z,99247.30
2019-03-03T20:39:37.550Z,99281.95
2019-03-03T20:42:26.391Z,99281.95
2019-03-03T20:45:34.589Z,99292.63
2019-03-03T20:48:23.489Z,99278.20
2019-03-03T20:51:12.365Z,99211.44
2019-03-03T20:53:54.082Z,99260.83
2019-03-03T20:56:43.019Z,99259.64
2019-03-03T20:59:31.890Z,99236.89
2019-03-03T21:02:20.755Z,99245.80
2019-03-03T21:05:02.810Z,99229.39
2019-03-03T21:07:52.232Z,99227.20
2019-03-03T21:10:42.338Z,99227.40
2019-03-03T21:13:31.289Z,99172.50
2019-03-03T21:16:20.119Z,99218.41
2019-03-03T21:19:08.962Z,99244.58
2019-03-03T21:21:57.868Z,99241.81
2019-03-03T21:24:46.681Z,99225.98
2019-03-03T21:27:35.558Z,99218.48
2019-03-03T21:30:43.713Z,99213.35
2019-03-03T21:33:32.599Z,99210.58
2019-03-03T21:36:21.534Z,99227.60
2019-03-03T21:39:10.998Z,99220.69
2019-03-03T21:42:00.509Z,99215.34
2019-03-03T21:44:49.370Z,99220.88
2019-03-03T21:47:38.250Z,99219.50
2019-03-03T21:50:48.089Z,99205.45
2019-03-03T21:53:36.941Z,99204.07
2019-03-03T21:56:18.735Z,99206.23
2019-03-03T21:59:07.665Z,99206.64
2019-03-03T22:01:56.566Z,99168.48
2019-03-03T22:04:38.658Z,99182.91
2019-03-03T22:07:27.472Z,99175.38
2019-03-03T22:10:09.135Z,99175.98
2019-03-03T22:16:13.929Z,99170.65
2019-03-03T22:19:02.820Z,99157.59
2019-03-03T22:21:51.623Z,99145.94
2019-03-03T22:24:40.544Z,99138.41
2019-03-03T22:27:29.351Z,99125.37
2019-03-03T22:30:39.121Z,99114.10
2019-03-03T22:33:27.976Z,99093.69
2019-03-03T22:36:10.059Z,99091.75
2019-03-03T22:38:58.906Z,99071.77
2019-03-03T22:41:47.740Z,99055.56
2019-03-03T22:44:38.100Z,99030.03
2019-03-03T22:50:36.658Z,99019.38
2019-03-03T22:53:25.541Z,99015.23
2019-03-03T22:56:14.393Z,98939.95
2019-03-03T22:59:03.317Z,98954.41
2019-03-03T23:01:52.267Z,98985.55
2019-03-03T23:05:02.173Z,98995.45
2019-03-03T23:08:11.929Z,98987.15
2019-03-03T23:11:39.409Z,98926.15
2019-03-03T23:14:49.236Z,98984.95
2019-03-03T23:17:58.975Z,98996.23
2019-03-03T23:21:08.794Z,98945.30
2019-03-03T23:24:36.303Z,98987.72
2019-03-03T23:27:25.129Z,99007.50
2019-03-03T23:30:14.042Z,99003.95
2019-03-03T23:33:02.905Z,99002.97
2019-03-03T23:35:51.726Z,98988.52
2019-03-03T23:38:40.557Z,98979.64
2019-03-03T23:41:29.353Z,98968.57
2019-03-03T23:44:18.349Z,98967.38
2019-03-03T23:47:07.149Z,98977.27
2019-03-03T23:49:56.004Z,98969.17
2019-03-03T23:52:44.906Z,98946.22
2019-03-03T23:55:33.808Z,98896.31
2019-03-03T23:58:22.624Z,98962.06
